Time;durP1;ratioP1;P1;durP2;ratioP2;P2;SDS_P1;SDS_P2;PMS_P1;PMS_P2;Temp;Humidity;BMP_temperature;BMP_pressure;BME280_temperature;BME280_humidity;BME280_pressure;Samples;Min_cycle;Max_cycle;Signal;HPM_P1;HPM_P2
2022/05/01 00:00:15;;;;;;;21.77;10.23;;;;;;;11.13;100.00;101511.03;5070829;28;20378;-83
2022/05/01 00:02:41;;;;;;;21.48;10.68;;;;;;;11.24;100.00;101514.22;5071266;28;20055;-83
2022/05/01 00:05:09;;;;;;;22.83;10.50;;;;;;;11.15;100.00;101512.69;5071263;28;20441;-83
2022/05/01 00:07:36;;;;;;;27.27;11.38;;;;;;;10.76;100.00;101498.91;5071305;28;20048;-83
2022/05/01 00:10:03;;;;;;;25.40;11.13;;;;;;;10.93;100.00;101494.09;5070713;28;20491;-83
2022/05/01 00:12:30;;;;;;;21.73;9.50;;;;;;;11.10;100.00;101511.13;5058217;28;20053;-84
2022/05/01 00:14:57;;;;;;;21.02;9.18;;;;;;;11.40;100.00;101510.28;5050869;28;20066;-83
2022/05/01 00:17:24;;;;;;;19.95;8.88;;;;;;;11.12;100.00;101501.44;5058964;28;20047;-84
2022/05/01 00:19:51;;;;;;;24.10;10.02;;;;;;;11.17;100.00;101505.69;5071210;28;20045;-83
2022/05/01 00:22:22;;;;;;;19.17;7.95;;;;;;;11.21;100.00;101496.81;5070879;28;20084;-83
2022/05/01 00:24:48;;;;;;;22.02;8.02;;;;;;;11.48;100.00;101490.84;5071275;28;20053;-83
2022/05/01 00:27:16;;;;;;;23.20;7.90;;;;;;;11.39;100.00;101490.19;5071272;28;20052;-83
2022/05/01 00:29:43;;;;;;;20.90;9.82;;;;;;;11.23;100.00;101474.97;5071709;28;20397;-84
2022/05/01 00:32:11;;;;;;;18.77;7.45;;;;;;;11.05;100.00;101489.41;5071858;28;20051;-84
2022/05/01 00:37:23;;;;;;;24.55;9.88;;;;;;;10.75;100.00;101445.69;5072261;28;20397;-84
2022/05/01 00:39:49;;;;;;;30.55;11.88;;;;;;;10.83;100.00;101472.50;5070309;28;20045;-83
2022/05/01 00:42:17;;;;;;;25.20;10.40;;;;;;;10.83;100.00;101498.72;5070937;28;20406;-83
2022/05/01 00:44:44;;;;;;;22.38;10.98;;;;;;;10.78;100.00;101495.38;5070721;28;20052;-83
2022/05/01 00:47:11;;;;;;;18.63;9.05;;;;;;;10.75;100.00;101481.50;5070512;28;20094;-83
2022/05/01 00:49:38;;;;;;;22.92;8.68;;;;;;;11.09;100.00;101476.19;5051106;28;20055;-83
2022/05/01 00:52:08;;;;;;;18.63;7.95;;;;;;;11.46;100.00;101487.41;5068849;28;20049;-84
2022/05/01 00:54:39;;;;;;;21.88;7.63;;;;;;;11.16;100.00;101438.41;5070276;28;20537;-83
2022/05/01 00:57:07;;;;;;;20.83;8.70;;;;;;;11.20;100.00;101455.78;5070110;28;20134;-83
2022/05/01 00:59:35;;;;;;;15.82;7.30;;;;;;;11.24;100.00;101450.44;5069958;28;20456;-83
2022/05/01 01:02:03;;;;;;;18.02;8.55;;;;;;;11.29;100.00;101493.13;5070753;28;20082;-83
2022/05/01 01:04:30;;;;;;;19.52;8.63;;;;;;;11.66;100.00;101464.03;5071487;28;20048;-83
2022/05/01 01:06:57;;;;;;;16.83;8.52;;;;;;;11.31;100.00;101460.69;5074784;28;20052;-83
2022/05/01 01:09:24;;;;;;;14.52;6.85;;;;;;;11.17;100.00;101429.66;5074395;28;20127;-83
2022/05/01 01:14:37;;;;;;;22.33;8.52;;;;;;;11.19;100.00;101477.66;5074850;28;20044;-84
2022/05/01 01:17:04;;;;;;;21.42;7.97;;;;;;;11.08;100.00;101461.34;5073923;28;20052;-83
2022/05/01 01:19:31;;;;;;;21.02;10.45;;;;;;;11.02;100.00;101470.25;5055352;28;20045;-84
2022/05/01 01:21:58;;;;;;;18.60;7.65;;;;;;;11.14;100.00;101463.81;5105522;28;20054;-84
2022/05/01 01:24:25;;;;;;;20.27;6.88;;;;;;;11.12;100.00;101472.63;5073932;28;20052;-83
2022/05/01 01:26:53;;;;;;;19.23;9.32;;;;;;;10.94;100.00;101463.50;5074895;28;20044;-83
2022/05/01 01:32:08;;;;;;;14.07;7.15;;;;;;;10.80;100.00;101438.56;5075106;28;20131;-84
2022/05/01 01:34:38;;;;;;;20.83;9.40;;;;;;;10.92;100.00;101446.97;5073370;28;20067;-84
2022/05/01 01:37:07;;;;;;;16.13;6.10;;;;;;;11.19;100.00;101437.47;5074173;28;20049;-83
2022/05/01 01:39:34;;;;;;;22.70;8.60;;;;;;;11.36;100.00;101450.94;5074125;28;20548;-83
2022/05/01 01:42:07;;;;;;;13.93;5.88;;;;;;;11.42;100.00;101463.03;5072029;28;20055;-83
2022/05/01 01:44:37;;;;;;;17.60;9.70;;;;;;;11.27;100.00;101466.09;5073342;28;20102;-83
2022/05/01 01:47:05;;;;;;;16.02;7.15;;;;;;;11.59;100.00;101452.03;5074977;28;20052;-84
2022/05/01 01:49:33;;;;;;;14.32;6.78;;;;;;;11.39;100.00;101450.84;5073438;28;20483;-83
2022/05/01 01:52:00;;;;;;;17.60;7.55;;;;;;;11.41;100.00;101463.94;5073893;28;20060;-83
2022/05/01 01:54:27;;;;;;;15.00;6.05;;;;;;;11.58;100.00;101461.66;5073376;28;20064;-84
2022/05/01 01:56:54;;;;;;;15.40;6.57;;;;;;;11.36;100.00;101457.94;5072724;28;20110;-84
2022/05/01 01:59:22;;;;;;;17.70;7.65;;;;;;;11.12;100.00;101444.66;5073090;28;20044;-83
2022/05/01 02:01:49;;;;;;;17.67;6.63;;;;;;;11.31;100.00;101462.47;5074613;28;20044;-83
2022/05/01 02:04:17;;;;;;;15.43;6.72;;;;;;;11.34;100.00;101426.53;5073077;28;20067;-84
2022/05/01 02:06:44;;;;;;;14.75;6.15;;;;;;;11.74;100.00;101446.31;5073292;28;20700;-83
2022/05/01 02:09:13;;;;;;;15.85;6.28;;;;;;;11.20;100.00;101437.41;5074563;28;20049;-84
2022/05/01 02:11:40;;;;;;;16.17;6.85;;;;;;;11.24;100.00;101443.44;5072526;28;20049;-84
2022/05/01 02:14:10;;;;;;;12.73;5.75;;;;;;;11.43;100.00;101456.88;5074264;28;20102;-83
2022/05/01 02:16:37;;;;;;;14.27;6.03;;;;;;;11.25;100.00;101458.28;5073101;28;20052;-84
2022/05/01 02:19:04;;;;;;;12.88;6.00;;;;;;;11.47;100.00;101447.16;5058508;28;20052;-83
2022/05/01 02:21:36;;;;;;;16.08;8.57;;;;;;;11.17;100.00;101447.13;5066992;28;20040;-83
2022/05/01 02:24:08;;;;;;;17.88;6.43;;;;;;;11.02;100.00;101451.91;5074343;28;20053;-83
2022/05/01 02:26:36;;;;;;;10.88;4.90;;;;;;;11.32;100.00;101454.56;5073178;28;20055;-83
2022/05/01 02:29:09;;;;;;;15.45;5.32;;;;;;;11.39;100.00;101444.75;5072650;28;20387;-83
2022/05/01 02:31:39;;;;;;;12.10;5.50;;;;;;;11.46;100.00;101441.06;5071472;28;20083;-83
2022/05/01 02:34:06;;;;;;;12.13;5.75;;;;;;;11.58;100.00;101445.06;5072220;28;20410;-83
2022/05/01 02:36:32;;;;;;;16.15;6.80;;;;;;;11.34;100.00;101439.66;5072502;28;20131;-83
2022/05/01 02:38:59;;;;;;;12.20;4.30;;;;;;;11.56;100.00;101439.00;5072566;28;20048;-83
2022/05/01 02:41:28;;;;;;;14.18;6.13;;;;;;;11.30;100.00;101442.41;5072043;28;20471;-81
2022/05/01 02:43:56;;;;;;;14.15;7.07;;;;;;;11.29;100.00;101449.41;5073546;28;20479;-82
2022/05/01 02:46:26;;;;;;;21.25;6.82;;;;;;;11.48;100.00;101446.25;5074222;28;20507;-82
2022/05/01 02:48:53;;;;;;;11.45;4.60;;;;;;;11.69;100.00;101442.13;5072588;28;20048;-82
2022/05/01 02:51:21;;;;;;;14.07;6.07;;;;;;;11.61;100.00;101444.97;5073396;28;20048;-82
2022/05/01 02:53:47;;;;;;;14.82;7.43;;;;;;;11.32;100.00;101446.69;5072974;28;20044;-82
2022/05/01 02:56:14;;;;;;;21.90;9.75;;;;;;;11.34;100.00;101442.25;5052220;28;20049;-81
2022/05/01 02:58:41;;;;;;;13.85;6.00;;;;;;;11.11;100.00;101437.69;5052906;28;20049;-81
2022/05/01 03:01:08;;;;;;;15.80;5.97;;;;;;;11.08;100.00;101440.41;5073163;28;20048;-82
2022/05/01 03:03:35;;;;;;;17.38;7.47;;;;;;;11.17;100.00;101439.28;5072243;28;20099;-81
2022/05/01 03:06:03;;;;;;;13.88;6.32;;;;;;;11.42;100.00;101428.94;5072193;28;20052;-82
2022/05/01 03:08:30;;;;;;;19.17;8.50;;;;;;;11.19;100.00;101433.09;5072095;28;20048;-82
2022/05/01 03:10:55;;;;;;;14.30;6.60;;;;;;;11.16;100.00;101429.72;5071417;28;20070;-82
2022/05/01 03:13:22;;;;;;;14.40;5.93;;;;;;;11.30;100.00;101426.69;5073474;28;20062;-82
2022/05/01 03:15:49;;;;;;;18.45;6.35;;;;;;;11.43;100.00;101435.03;5071939;28;20135;-82
2022/05/01 03:23:47;;;;;;;11.20;4.78;;;;;;;11.27;100.00;101409.28;5053686;28;20067;-83
2022/05/01 03:26:18;;;;;;;13.77;5.80;;;;;;;11.62;100.00;101425.72;5052204;28;20067;-83
2022/05/01 03:28:48;;;;;;;16.83;6.32;;;;;;;11.53;100.00;101439.97;5064722;28;20052;-84
2022/05/01 03:31:16;;;;;;;12.23;5.18;;;;;;;11.33;100.00;101430.06;5072838;28;20115;-83
2022/05/01 03:33:44;;;;;;;16.10;8.10;;;;;;;11.05;100.00;101442.25;5071591;28;20106;-83
2022/05/01 03:36:12;;;;;;;12.98;5.88;;;;;;;11.26;100.00;101432.91;5071412;28;20143;-83
2022/05/01 03:38:41;;;;;;;15.55;7.13;;;;;;;11.09;100.00;101412.44;5070866;28;20055;-83
2022/05/01 03:41:12;;;;;;;14.57;5.32;;;;;;;11.30;100.00;101426.69;5070782;28;20055;-83
2022/05/01 03:43:39;;;;;;;14.32;7.47;;;;;;;10.61;100.00;101382.34;5071389;28;20167;-83
2022/05/01 03:46:06;;;;;;;14.23;5.82;;;;;;;10.88;100.00;101393.81;5071606;28;20135;-83
2022/05/01 03:48:33;;;;;;;14.13;4.97;;;;;;;11.44;100.00;101429.75;5060295;28;20637;-83
2022/05/01 03:51:00;;;;;;;15.48;5.97;;;;;;;10.94;100.00;101409.38;5062019;28;20135;-83
2022/05/01 03:53:27;;;;;;;13.38;5.50;;;;;;;10.97;100.00;101397.94;5072078;28;20119;-83
2022/05/01 03:55:54;;;;;;;12.77;5.75;;;;;;;11.20;100.00;101408.59;5071895;28;20060;-83
2022/05/01 03:58:21;;;;;;;13.68;5.57;;;;;;;11.37;100.00;101421.22;5065840;28;20136;-83
2022/05/01 04:00:48;;;;;;;14.50;5.90;;;;;;;11.29;100.00;101394.34;5059637;28;20051;-83
2022/05/01 04:03:16;;;;;;;13.18;5.43;;;;;;;11.61;100.00;101428.38;5071225;28;20075;-83
2022/05/01 04:05:43;;;;;;;14.95;6.78;;;;;;;11.34;100.00;101436.16;5071070;28;20055;-83
2022/05/01 04:08:11;;;;;;;18.73;7.32;;;;;;;11.27;100.00;101435.47;5071004;28;20048;-83
2022/05/01 04:10:40;;;;;;;12.98;5.45;;;;;;;11.46;100.00;101413.97;5071983;28;20075;-83
2022/05/01 04:13:08;;;;;;;12.93;5.88;;;;;;;11.54;100.00;101425.97;5071281;28;20414;-84
2022/05/01 04:15:36;;;;;;;15.48;5.82;;;;;;;11.54;100.00;101419.81;5072172;28;20052;-83
2022/05/01 04:18:04;;;;;;;15.18;6.05;;;;;;;11.44;100.00;101427.13;5070857;28;20056;-83
2022/05/01 04:20:38;;;;;;;13.98;6.18;;;;;;;11.36;100.00;101447.47;5070081;28;20040;-83
2022/05/01 04:23:06;;;;;;;13.32;6.45;;;;;;;11.53;100.00;101431.25;5071743;28;20045;-83
2022/05/01 04:25:35;;;;;;;16.67;6.50;;;;;;;11.38;100.00;101428.19;5071447;28;20131;-84
2022/05/01 04:28:07;;;;;;;18.35;6.85;;;;;;;11.43;100.00;101421.94;5071872;28;20050;-84
2022/05/01 04:30:35;;;;;;;17.30;7.95;;;;;;;11.47;100.00;101431.41;5071576;28;20044;-84
2022/05/01 04:33:05;;;;;;;15.73;7.43;;;;;;;11.27;100.00;101432.00;5071267;28;20063;-83
2022/05/01 04:35:34;;;;;;;14.98;6.45;;;;;;;11.66;100.00;101448.31;5070947;28;20052;-84
2022/05/01 04:38:04;;;;;;;14.40;6.60;;;;;;;11.72;100.00;101442.88;5070752;28;20482;-83
2022/05/01 04:40:34;;;;;;;15.98;5.88;;;;;;;11.60;100.00;101430.16;5069885;28;20055;-83
2022/05/01 04:43:19;;;;;;;15.55;6.63;;;;;;;11.72;100.00;101442.00;5070296;28;20059;-84
2022/05/01 04:45:47;;;;;;;19.20;7.40;;;;;;;11.62;100.00;101441.44;5070331;28;20059;-83
2022/05/01 04:48:15;;;;;;;13.93;5.63;;;;;;;11.66;100.00;101423.84;5070870;28;20071;-84
2022/05/01 04:50:42;;;;;;;13.60;6.68;;;;;;;11.73;100.00;101433.25;5069328;28;20055;-83
2022/05/01 04:53:11;;;;;;;27.33;7.95;;;;;;;11.40;100.00;101449.97;5065497;28;20501;-83
2022/05/01 04:55:39;;;;;;;15.00;6.50;;;;;;;11.69;100.00;101447.38;5094469;28;20052;-83
2022/05/01 04:58:06;;;;;;;14.27;5.30;;;;;;;11.84;100.00;101459.13;5060263;28;20045;-83
2022/05/01 05:00:34;;;;;;;15.27;5.35;;;;;;;11.93;100.00;101454.50;5058183;28;20491;-83
2022/05/01 05:03:01;;;;;;;18.20;6.78;;;;;;;11.65;100.00;101453.59;5060833;28;20478;-83
2022/05/01 05:05:31;;;;;;;14.88;5.97;;;;;;;11.64;100.00;101437.00;5061354;28;20059;-83
2022/05/01 05:10:47;;;;;;;15.70;6.43;;;;;;;11.92;100.00;101454.56;5053895;28;20044;-84
2022/05/01 05:13:27;;;;;;;16.67;6.32;;;;;;;11.81;100.00;101443.47;5063435;28;20045;-83
2022/05/01 05:15:56;;;;;;;;;;;;;;;11.92;100.00;101458.03;5055735;28;20056;-83
2022/05/01 05:18:23;;;;;;;18.05;6.68;;;;;;;11.62;100.00;101443.22;5055831;28;20432;-83
2022/05/01 05:20:49;;;;;;;17.15;7.18;;;;;;;11.87;100.00;101466.94;5062080;28;20052;-83
2022/05/01 05:23:17;;;;;;;12.52;5.07;;;;;;;12.10;100.00;101440.81;5069782;28;20048;-83
2022/05/01 05:25:45;;;;;;;17.00;6.22;;;;;;;11.99;100.00;101466.56;5069736;28;20056;-84
2022/05/01 05:28:12;;;;;;;21.90;6.97;;;;;;;11.83;100.00;101470.53;5066931;28;20488;-84
2022/05/01 05:30:39;;;;;;;14.27;5.90;;;;;;;11.80;100.00;101463.63;5069047;28;20119;-84
2022/05/01 05:33:06;;;;;;;15.25;6.75;;;;;;;11.74;100.00;101461.22;5069977;28;20516;-83
2022/05/01 05:35:33;;;;;;;13.52;5.75;;;;;;;11.62;100.00;101436.19;5070655;28;20813;-83
2022/05/01 05:38:00;;;;;;;16.88;5.75;;;;;;;11.85;100.00;101453.84;5062594;28;20045;-83
2022/05/01 05:40:26;;;;;;;16.05;5.95;;;;;;;12.19;100.00;101454.56;5056642;28;20143;-82
2022/05/01 05:42:53;;;;;;;26.83;10.05;;;;;;;11.66;100.00;101464.03;5067733;28;20049;-81
2022/05/01 05:45:20;;;;;;;14.40;6.13;;;;;;;11.85;100.00;101474.84;5064004;28;20091;-82
2022/05/01 05:47:47;;;;;;;16.77;7.15;;;;;;;11.89;100.00;101465.09;5069991;28;20445;-82
2022/05/01 05:50:13;;;;;;;14.15;6.13;;;;;;;11.92;100.00;101473.78;5069602;28;20048;-83
2022/05/01 05:52:40;;;;;;;14.73;5.75;;;;;;;12.10;100.00;101484.59;5073726;28;20040;-82
2022/05/01 05:55:09;;;;;;;15.00;6.07;;;;;;;12.30;100.00;101481.31;5068849;28;20471;-82
2022/05/01 05:57:36;;;;;;;12.57;5.75;;;;;;;12.37;100.00;101492.47;5069145;28;20071;-82
2022/05/01 06:00:04;;;;;;;14.38;5.88;;;;;;;12.12;100.00;101457.38;5072431;28;20058;-83
2022/05/01 06:02:35;;;;;;;14.32;5.82;;;;;;;12.32;100.00;101453.22;5064355;28;20055;-83
2022/05/01 06:05:03;;;;;;;9.45;3.90;;;;;;;12.46;100.00;101466.75;5073546;28;20056;-83
2022/05/01 06:07:30;;;;;;;11.90;5.20;;;;;;;12.54;100.00;101477.88;5073154;28;20049;-83
2022/05/01 06:09:57;;;;;;;15.70;8.05;;;;;;;12.18;100.00;101455.47;5054816;28;20132;-83
2022/05/01 06:12:24;;;;;;;12.30;5.53;;;;;;;12.09;100.00;101457.50;5072228;28;20091;-83
2022/05/01 06:14:51;;;;;;;12.23;5.70;;;;;;;12.58;100.00;101510.16;5073815;28;20056;-83
2022/05/01 06:17:18;;;;;;;11.73;4.72;;;;;;;12.78;100.00;101505.97;5072073;28;20142;-83
2022/05/01 06:19:45;;;;;;;14.15;5.35;;;;;;;12.36;100.00;101491.63;5068506;28;20059;-83
2022/05/01 06:22:13;;;;;;;14.48;5.82;;;;;;;12.53;100.00;101488.44;5067700;28;20056;-83
2022/05/01 06:24:40;;;;;;;13.25;6.55;;;;;;;12.57;100.00;101497.94;5096270;28;20048;-84
2022/05/01 06:27:07;;;;;;;12.23;5.78;;;;;;;12.31;100.00;101499.66;5072497;28;20063;-83
2022/05/01 06:29:34;;;;;;;12.15;5.30;;;;;;;12.07;100.00;101498.66;5072664;28;20178;-83
2022/05/01 06:32:01;;;;;;;14.70;6.18;;;;;;;12.18;100.00;101502.72;5072632;28;20045;-83
2022/05/01 06:34:29;;;;;;;13.50;5.95;;;;;;;12.61;100.00;101512.69;5073348;28;20414;-84
2022/05/01 06:36:56;;;;;;;11.65;5.22;;;;;;;12.43;100.00;101477.38;5071959;28;20249;-83
2022/05/01 06:39:23;;;;;;;11.57;4.72;;;;;;;12.42;100.00;101480.06;5072363;28;20052;-83
2022/05/01 06:41:50;;;;;;;14.48;5.97;;;;;;;12.52;100.00;101505.13;5071758;28;20047;-84
2022/05/01 06:44:16;;;;;;;12.77;4.82;;;;;;;12.76;100.00;101489.41;5073015;28;20056;-84
2022/05/01 06:46:43;;;;;;;15.13;6.03;;;;;;;12.58;100.00;101501.41;5072699;28;20132;-83
2022/05/01 06:49:11;;;;;;;11.15;5.18;;;;;;;12.24;100.00;101478.91;5056095;28;20399;-84
2022/05/01 06:51:38;;;;;;;11.27;5.18;;;;;;;12.01;100.00;101456.88;5067521;28;20059;-84
2022/05/01 06:54:07;;;;;;;13.02;5.47;;;;;;;12.24;100.00;101469.25;5072800;28;20811;-83
2022/05/01 06:56:34;;;;;;;12.35;5.95;;;;;;;12.45;100.00;101487.84;5072333;28;20072;-84
2022/05/01 06:59:02;;;;;;;13.15;5.93;;;;;;;12.61;100.00;101507.44;5072465;28;20534;-83
2022/05/01 07:01:29;;;;;;;13.27;5.60;;;;;;;12.38;100.00;101474.06;5071535;28;20062;-83
2022/05/01 07:03:56;;;;;;;11.50;4.53;;;;;;;12.82;100.00;101500.59;5072834;28;20478;-83
2022/05/01 07:06:23;;;;;;;12.60;5.65;;;;;;;12.53;100.00;101455.13;5073458;28;20502;-83
2022/05/01 07:08:50;;;;;;;13.07;5.57;;;;;;;12.56;100.00;101462.06;5072597;28;20048;-83
2022/05/01 07:11:16;;;;;;;14.48;6.25;;;;;;;13.10;100.00;101518.88;5072009;28;20047;-83
2022/05/01 07:13:43;;;;;;;15.45;7.43;;;;;;;12.70;100.00;101470.31;5073442;28;20054;-84
2022/05/01 07:16:10;;;;;;;20.38;9.60;;;;;;;12.65;100.00;101492.41;5072451;28;20501;-84
2022/05/01 07:18:37;;;;;;;16.85;7.20;;;;;;;12.47;100.00;101478.16;5061525;28;20051;-83
2022/05/01 07:21:04;;;;;;;14.70;6.13;;;;;;;12.43;100.00;101461.63;5062270;28;20044;-84
2022/05/01 07:23:30;;;;;;;11.63;5.28;;;;;;;12.89;100.00;101478.44;5072095;28;20048;-83
2022/05/01 07:25:58;;;;;;;16.05;7.43;;;;;;;12.98;100.00;101505.28;5073263;28;20090;-83
2022/05/01 07:28:25;;;;;;;13.00;6.18;;;;;;;13.21;100.00;101517.59;5071631;28;20048;-83
2022/05/01 07:30:52;;;;;;;12.65;5.82;;;;;;;13.14;100.00;101521.38;5071080;28;20067;-83
2022/05/01 07:33:19;;;;;;;14.38;6.10;;;;;;;13.28;100.00;101513.88;5071915;28;20107;-83
2022/05/01 07:35:46;;;;;;;13.27;6.15;;;;;;;13.00;100.00;101495.59;5071897;28;20395;-83
2022/05/01 07:38:13;;;;;;;15.82;8.48;;;;;;;12.73;100.00;101467.59;5072949;28;20048;-84
2022/05/01 07:40:40;;;;;;;16.00;7.47;;;;;;;13.06;100.00;101511.97;5071551;28;20052;-83
2022/05/01 07:43:06;;;;;;;15.02;6.57;;;;;;;13.22;100.00;101480.72;5072792;28;20545;-84
2022/05/01 07:45:33;;;;;;;13.40;6.07;;;;;;;13.13;100.00;101511.78;5072944;28;20143;-84
2022/05/01 07:48:11;;;;;;;15.07;6.63;;;;;;;13.27;100.00;101523.50;5063322;28;20060;-84
2022/05/01 07:50:38;;;;;;;12.98;5.85;;;;;;;13.08;100.00;101504.03;5059796;28;20984;-84
2022/05/01 07:53:04;;;;;;;11.88;5.03;;;;;;;13.16;100.00;101509.06;5071996;28;20051;-84
2022/05/01 07:55:31;;;;;;;14.80;7.18;;;;;;;13.15;100.00;101481.03;5071404;28;20048;-84
2022/05/01 07:57:58;;;;;;;16.35;7.40;;;;;;;13.45;100.00;101472.00;5070602;28;20053;-83
2022/05/01 08:00:25;;;;;;;16.05;7.22;;;;;;;13.37;100.00;101503.03;5056003;28;20059;-84
2022/05/01 08:05:36;;;;;;;14.55;6.30;;;;;;;13.59;100.00;101510.97;5072676;28;20052;-83
2022/05/01 08:08:04;;;;;;;15.80;6.63;;;;;;;13.80;100.00;101506.66;5070895;28;20048;-84
2022/05/01 08:10:32;;;;;;;13.65;5.57;;;;;;;13.57;100.00;101533.00;5071113;28;20438;-83
2022/05/01 08:12:59;;;;;;;15.75;7.75;;;;;;;13.77;100.00;101527.81;5071934;28;20056;-83
2022/05/01 08:15:25;;;;;;;12.40;5.40;;;;;;;13.61;100.00;101526.69;5070958;28;21173;-84
2022/05/01 08:17:52;;;;;;;15.15;6.53;;;;;;;13.89;100.00;101518.59;5065320;28;20053;-84
2022/05/01 08:23:09;;;;;;;13.05;4.78;;;;;;;14.03;100.00;101537.34;5072424;28;20502;-82
2022/05/01 08:25:37;;;;;;;12.32;5.70;;;;;;;13.92;100.00;101541.34;5071170;28;20497;-84
2022/05/01 08:28:06;;;;;;;10.75;4.90;;;;;;;13.68;100.00;101536.06;5071615;28;20070;-84
2022/05/01 08:30:35;;;;;;;9.95;4.18;;;;;;;13.90;100.00;101532.63;5069850;28;20045;-83
2022/05/01 08:33:04;;;;;;;11.77;4.72;;;;;;;13.83;100.00;101508.31;5072501;28;20600;-83
2022/05/01 08:35:31;;;;;;;12.98;4.80;;;;;;;14.06;100.00;101510.06;5071132;28;20505;-83
2022/05/01 08:37:58;;;;;;;12.15;5.25;;;;;;;13.90;100.00;101482.59;5071042;28;20124;-84
2022/05/01 08:40:26;;;;;;;13.15;5.55;;;;;;;13.75;100.00;101487.53;5068265;28;20044;-84
2022/05/01 08:42:53;;;;;;;13.88;5.70;;;;;;;13.56;100.00;101489.16;5060783;28;20459;-84
2022/05/01 08:45:26;;;;;;;15.52;5.55;;;;;;;14.07;100.00;101545.13;5060263;28;20071;-84
2022/05/01 08:48:00;;;;;;;13.70;5.53;;;;;;;14.27;100.00;101554.88;5063174;28;20059;-84
2022/05/01 08:50:27;;;;;;;12.02;4.60;;;;;;;14.25;100.00;101523.31;5069621;28;20044;-83
2022/05/01 08:52:55;;;;;;;15.40;6.95;;;;;;;14.39;100.00;101535.94;5070161;28;20053;-84
2022/05/01 08:55:22;;;;;;;13.00;4.70;;;;;;;13.92;100.00;101547.44;5072471;28;20131;-84
2022/05/01 08:57:49;;;;;;;12.80;5.03;;;;;;;14.49;100.00;101553.09;5071073;28;20539;-85
2022/05/01 09:00:17;;;;;;;13.23;5.28;;;;;;;14.08;100.00;101545.06;5065136;28;20045;-84
2022/05/01 09:02:45;;;;;;;12.27;4.78;;;;;;;14.24;100.00;101554.06;5051974;28;20051;-82
2022/05/01 09:05:13;;;;;;;13.40;5.47;;;;;;;14.02;100.00;101535.66;5083758;28;20064;-83
2022/05/01 09:07:40;;;;;;;12.98;5.78;;;;;;;14.12;100.00;101553.72;5070197;28;20052;-84
2022/05/01 09:10:08;;;;;;;14.38;5.47;;;;;;;13.97;100.00;101556.03;5066689;28;20048;-84
2022/05/01 09:12:53;;;;;;;13.48;5.50;;;;;;;14.02;100.00;101569.88;5069757;28;20139;-84
2022/05/01 09:15:31;;;;;;;12.32;4.95;;;;;;;14.14;100.00;101557.97;5069657;28;20048;-84
2022/05/01 09:18:09;;;;;;;12.10;5.15;;;;;;;14.20;100.00;101568.28;5065092;28;20590;-84
2022/05/01 09:20:39;;;;;;;12.30;4.93;;;;;;;14.28;100.00;101562.72;5060788;28;20054;-84
2022/05/01 09:23:06;;;;;;;11.82;4.20;;;;;;;14.17;100.00;101547.34;5062944;28;20059;-82
2022/05/01 09:25:33;;;;;;;12.43;5.10;;;;;;;14.07;100.00;101563.56;5058389;28;20057;-84
2022/05/01 09:28:18;;;;;;;11.32;4.30;;;;;;;14.10;100.00;101553.75;5058143;28;20503;-84
2022/05/01 09:30:45;;;;;;;9.73;3.70;;;;;;;14.25;100.00;101568.09;5066185;28;20482;-83
2022/05/01 09:33:21;;;;;;;14.45;5.20;;;;;;;14.08;100.00;101567.91;5063223;28;20052;-84
2022/05/01 09:35:49;;;;;;;12.77;5.43;;;;;;;14.16;100.00;101568.47;5074452;28;20401;-83
2022/05/01 09:38:19;;;;;;;13.95;5.40;;;;;;;14.00;100.00;101570.84;5058811;28;20041;-84
2022/05/01 09:40:48;;;;;;;15.40;6.97;;;;;;;13.54;100.00;101577.84;5069466;28;20469;-84
2022/05/01 09:43:44;;;;;;;12.57;5.70;;;;;;;13.66;100.00;101572.97;5060241;28;20041;-84
2022/05/01 09:46:29;;;;;;;11.10;4.47;;;;;;;13.93;100.00;101561.47;5061202;28;20079;-84
2022/05/01 09:48:59;;;;;;;10.27;4.47;;;;;;;14.23;100.00;101565.50;5068598;28;20083;-83
2022/05/01 09:51:31;;;;;;;10.48;4.57;;;;;;;14.42;100.00;101567.44;5073852;28;20063;-83
2022/05/01 09:54:00;;;;;;;10.73;3.85;;;;;;;14.73;100.00;101571.47;5060007;28;20421;-83
2022/05/01 09:56:27;;;;;;;13.65;6.35;;;;;;;13.83;100.00;101546.03;5074588;28;20048;-84
2022/05/01 09:58:59;;;;;;;13.07;4.63;;;;;;;14.35;100.00;101531.72;5071538;28;20411;-84
2022/05/01 10:01:27;;;;;;;15.27;6.20;;;;;;;14.04;100.00;101535.56;5073932;28;20055;-84
2022/05/01 10:03:59;;;;;;;10.82;4.03;;;;;;;14.13;100.00;101565.94;5058088;28;20053;-84
2022/05/01 10:06:29;;;;;;;9.10;3.70;;;;;;;14.51;100.00;101564.41;5053233;28;20053;-84
2022/05/01 10:08:56;;;;;;;9.73;3.53;;;;;;;14.24;100.00;101534.78;5069292;28;20045;-83
2022/05/01 10:11:24;;;;;;;13.80;5.13;;;;;;;13.72;100.00;101534.19;5072419;28;20570;-84
2022/05/01 10:13:51;;;;;;;11.27;4.07;;;;;;;14.30;100.00;101541.56;5081861;28;20070;-83
2022/05/01 10:16:18;;;;;;;10.10;3.47;;;;;;;14.41;100.00;101545.50;5073189;28;20048;-84
2022/05/01 10:18:52;;;;;;;14.38;5.32;;;;;;;14.31;100.00;101533.63;5059169;28;20132;-84
2022/05/01 10:21:39;;;;;;;10.40;4.60;;;;;;;14.42;100.00;101526.13;5069006;28;20052;-83
2022/05/01 10:24:07;;;;;;;9.30;3.70;;;;;;;15.14;100.00;101553.88;5073718;28;20131;-84
2022/05/01 10:26:37;;;;;;;10.43;4.53;;;;;;;15.33;100.00;101531.97;5066147;28;20055;-85
2022/05/01 10:32:20;;;;;;;9.98;4.20;;;;;;;15.27;100.00;101567.38;5074543;28;20052;-86
2022/05/01 10:32:41;;;;;;;13.68;6.10;;;;;;;15.31;100.00;101557.56;5055343;28;20080;-85
2022/05/01 10:35:46;;;;;;;11.13;4.47;;;;;;;15.69;100.00;101560.25;5055119;28;20061;-85
2022/05/01 10:38:31;;;;;;;10.10;3.95;;;;;;;16.39;100.00;101556.06;5054018;28;20053;-86
2022/05/01 10:40:59;;;;;;;13.43;4.47;;;;;;;15.19;100.00;101519.38;5063655;28;20062;-85
2022/05/01 10:43:37;;;;;;;12.77;4.90;;;;;;;15.46;100.00;101525.22;5075264;28;20673;-85
2022/05/01 10:46:24;;;;;;;12.65;4.93;;;;;;;16.54;100.00;101558.88;5075095;28;20052;-84
2022/05/01 10:48:52;;;;;;;9.68;3.78;;;;;;;16.95;100.00;101561.28;5066361;28;20093;-82
2022/05/01 10:51:27;;;;;;;9.90;4.10;;;;;;;17.07;100.00;101555.38;5073605;28;20098;-83
2022/05/01 10:54:09;;;;;;;12.65;4.30;;;;;;;17.07;100.00;101556.22;5073142;28;20068;-83
2022/05/01 10:56:50;;;;;;;10.93;4.47;;;;;;;17.05;100.00;101562.50;5072932;28;20055;-84
2022/05/01 10:59:43;;;;;;;11.25;3.80;;;;;;;16.89;100.00;101565.97;5053765;28;20056;-83
2022/05/01 11:02:45;;;;;;;12.57;4.82;;;;;;;16.89;100.00;101560.66;5073205;28;20045;-84
2022/05/01 11:05:42;;;;;;;12.20;5.78;;;;;;;16.82;100.00;101558.34;5065396;28;20052;-84
2022/05/01 11:08:15;;;;;;;14.00;6.18;;;;;;;16.38;100.00;101506.81;5072969;28;20045;-84
2022/05/01 11:10:43;;;;;;;12.20;4.97;;;;;;;16.78;100.00;101507.41;5072176;28;20056;-84
2022/05/01 11:13:33;;;;;;;12.40;5.07;;;;;;;16.67;100.00;101517.69;5072222;28;20079;-83
2022/05/01 11:19:13;;;;;;;13.80;4.90;;;;;;;17.01;100.00;101531.84;5058858;28;20122;-83
2022/05/01 11:21:40;;;;;;;13.60;5.35;;;;;;;16.61;100.00;101536.50;5068953;28;20048;-84
2022/05/01 11:24:08;;;;;;;11.02;4.50;;;;;;;16.19;100.00;101513.94;5060415;28;20058;-83
2022/05/01 11:26:35;;;;;;;14.63;6.55;;;;;;;16.47;100.00;101550.44;5068160;28;20076;-83
2022/05/01 11:29:17;;;;;;;12.32;4.60;;;;;;;16.49;100.00;101561.78;5061839;28;20048;-83
2022/05/01 11:31:46;;;;;;;14.30;5.35;;;;;;;16.26;100.00;101555.81;5065462;28;20051;-84
2022/05/01 11:34:15;;;;;;;11.63;4.80;;;;;;;16.51;100.00;101557.25;5063169;28;20053;-83
2022/05/01 11:37:03;;;;;;;12.55;5.63;;;;;;;16.18;100.00;101554.47;5069719;28;20052;-83
2022/05/01 11:39:51;;;;;;;10.85;4.22;;;;;;;16.57;100.00;101564.03;5069562;28;20533;-84
2022/05/01 11:42:26;;;;;;;11.70;4.85;;;;;;;16.75;100.00;101560.47;5063785;28;20044;-84
2022/05/01 11:44:55;;;;;;;10.57;4.95;;;;;;;16.59;100.00;101555.09;5063356;28;20079;-84